Mechanicsvlle, Virginia
Current Conditions -  °F | °C
As of 8:54 PM on Tuesday 21 Oct 2014 (Local Time) from KRIC Reporting Station
Overcast Overcast  
Wind Chill: 59°   Ceiling: 11000
Heat Index: 59°   Visibility: 10mi
Dew Point: 50°   Wind: 10mph
Humidity: 72%   Direction: 330°NNW
Pressure: 29.88"   Gusts: NA
Location:  37.634°N, 77.2585°W
Report Text: KRIC 220054Z 33009KT 10SM OVC110 15/10 A2988 RMK AO2 SLP123 T01500100
Loading
Personal Weather Stations






























Interactive Weather Map New forecast layout! Learn more

10-Day Weather Forecast

Advertisements
Track Severe Weather on mobile